Дата Пункты Температура Давл., мм. Влажн., % Ветер Погодные явления
Воздуха Воды Направл. Скорость
23.08.15 05:00 Одесса 23.0 22.0 757 51 З 2 18 часов
23.08.15 02:00 Одесса 23.0 22.0 757 57 З 1 15 часов
23.08.15 11:00 Одесса 24.0 22.0 757 54 Пн 0 12 часов
23.08.15 08:00 Одесса 22.0 22.0 757 53 Пн 2 09 часов
23.08.15 05:00 Одесса 19.0 22.0 757 60 Пн-З 1 06 часов
23.08.15 02:00 Одесса 20.0 22.0 757 57 Пн-З 2 03 часа
22.08.15 08:00 Одесса 21.0 22.0 758 52 З 1 21 час
22.08.15 05:00 Одесса 24.0 22.0 759 49 Пн 1 18 часов
22.08.15 02:00 Одесса 24.0 22.0 760 44 Пд-С 2 15 часов
22.08.15 11:00 Одесса 23.0 22.0 761 49 Пн-С 4 12 часов
22.08.15 08:00 Одесса 19.0 22.0 762 63 Пн 2 09 часов
22.08.15 05:00 Одесса 15.0 22.0 762 80 Пн 2 06 часов
22.08.15 02:00 Одесса 19.0 22.0 762 71 Пн-С 6 03 часа
21.08.15 08:00 Одесса 18.0 22.0 762 58 Пн-С 1 21 час
21.08.15 05:00 Одесса 23.0 22.0 762 46 Пд-С 2 18 часов
21.08.15 02:00 Одесса 24.0 22.0 763 49 С 4 15 часов
21.08.15 11:00 Одесса 22.0 23.0 763 47 Пн-С 6 12 часов
21.08.15 08:00 Одесса 18.0 23.0 763 66 Пн 4 09 часов
21.08.15 05:00 Одесса 18.0 23.0 763 69 Пн 4 06 часов
21.08.15 02:00 Одесса 20.0 23.0 763 57 Пн-С 7 03 часа
Количество строк
351 352 353 354 355 356 357 358 359 360
Page 356 of 481